»·PEaware :: N805RJ F70-F70

N805RJ :: F70-F70

FLIGHT INFORMATION

Flight Status: Arrived
Operator: Privately registered:
United States
More flights under this callsign
Pilot: Rickie J. (22768)
Aircraft: CESSNA 177 CARDINAL
(C177)
More flights by this aircraft type
Origin: F70 French Valley
United States
Destination: F70 French Valley
United States
More flights between these airports :: More routes between these airports
Route: NIKKL V186 PDZ V21 GAREY
File this flight plan on PilotEdge
Remarks:
Altitude:
(Current/Filed)
16,500ft
Speed:
(Current/Filed)
149kts
Departed: 07-Jan-21 01:27 PM
Arrived: 07-Jan-21 02:23 PM
Distance/Time
Traveled:
0nm/0:56
Distance/Time
To Go:
Arrived

Flight Plot

Page will automatically refresh every two minutes.

Flight plan parsing failed; only flown route is shown


Map Options




Map Legend


Flown Route
Filed Route
Departure Airport
Arrival Airport
Navaid (VOR, NDB)
Fix

Horizontal Profiles

Position Reports

Time Latitude Longitude Heading Altitude Ground
Speed
07-Jan-21 12:11 33.578509 -117.130283 69 1353ft 0kts
07-Jan-21 12:12 33.578509 -117.130283 69 1353ft 0kts
07-Jan-21 12:13 33.578509 -117.130283 69 1353ft 0kts
07-Jan-21 12:14 33.578509 -117.130283 69 1353ft 0kts
07-Jan-21 12:15 33.578509 -117.130283 69 1353ft 0kts
07-Jan-21 12:16 33.578509 -117.130283 69 1353ft 0kts
07-Jan-21 12:17 33.578509 -117.130283 69 1353ft 0kts
07-Jan-21 12:18 33.578509 -117.130283 69 1353ft 0kts
07-Jan-21 12:19 33.578509 -117.130283 69 1353ft 0kts
07-Jan-21 12:20 33.578509 -117.130283 69 1353ft 0kts
07-Jan-21 12:21 33.578509 -117.130283 69 1353ft 0kts
07-Jan-21 12:22 33.578509 -117.130283 69 1353ft 0kts
07-Jan-21 12:23 33.578509 -117.130283 69 1353ft 0kts
07-Jan-21 12:24 33.578509 -117.130283 69 1353ft 0kts
07-Jan-21 12:25 33.578509 -117.130283 69 1353ft 0kts
07-Jan-21 12:26 33.578509 -117.130283 69 1353ft 0kts
07-Jan-21 12:27 33.578509 -117.130283 69 1353ft 0kts
07-Jan-21 12:28 33.578509 -117.130283 69 1353ft 0kts
07-Jan-21 12:29 33.578509 -117.130283 69 1353ft 0kts
07-Jan-21 12:30 33.578509 -117.130283 69 1353ft 0kts
07-Jan-21 12:31 33.578509 -117.130283 69 1353ft 0kts
07-Jan-21 12:32 33.578509 -117.130283 69 1353ft 0kts
07-Jan-21 12:33 33.578509 -117.130283 69 1353ft 0kts
07-Jan-21 12:34 33.578509 -117.130283 69 1353ft 0kts
07-Jan-21 12:35 33.578509 -117.130283 69 1353ft 0kts
07-Jan-21 12:36 33.578509 -117.130283 69 1353ft 0kts
07-Jan-21 12:37 33.578509 -117.130283 69 1353ft 0kts
07-Jan-21 12:38 33.578509 -117.130283 69 1353ft 0kts
07-Jan-21 12:39 33.578509 -117.130283 69 1353ft 0kts
07-Jan-21 12:40 33.578509 -117.130283 69 1353ft 0kts
07-Jan-21 12:41 33.578509 -117.130283 69 1353ft 0kts
07-Jan-21 12:42 33.578509 -117.130283 69 1353ft 0kts
07-Jan-21 12:43 33.578509 -117.130283 69 1353ft 0kts
07-Jan-21 12:44 33.578509 -117.130283 69 1353ft 0kts
07-Jan-21 12:45 33.578509 -117.130283 69 1353ft 0kts
07-Jan-21 12:46 33.578509 -117.130283 69 1353ft 0kts
07-Jan-21 12:47 33.578509 -117.130283 69 1353ft 0kts
07-Jan-21 12:48 33.578509 -117.130283 69 1353ft 0kts
07-Jan-21 12:49 33.578509 -117.130283 69 1353ft 0kts
07-Jan-21 12:50 33.578509 -117.130283 69 1353ft 0kts
07-Jan-21 12:51 33.578509 -117.130283 69 1353ft 0kts
07-Jan-21 12:52 33.578509 -117.130283 69 1353ft 0kts
07-Jan-21 12:53 33.578509 -117.130283 69 1353ft 0kts
07-Jan-21 12:54 33.578509 -117.130283 69 1353ft 0kts
07-Jan-21 12:55 33.578509 -117.130283 69 1353ft 0kts
07-Jan-21 12:56 33.578510 -117.130283 69 1353ft 0kts
07-Jan-21 12:57 33.578510 -117.130283 69 1353ft 0kts
07-Jan-21 12:58 33.578509 -117.130283 69 1353ft 0kts
07-Jan-21 12:59 33.578509 -117.130283 69 1353ft 0kts
07-Jan-21 13:00 33.578509 -117.130283 69 1353ft 0kts
07-Jan-21 13:02 33.578509 -117.130283 69 1353ft 0kts
07-Jan-21 13:03 33.578509 -117.130283 69 1353ft 0kts
07-Jan-21 13:04 33.578509 -117.130283 69 1353ft 0kts
07-Jan-21 13:05 33.578509 -117.130283 69 1353ft 0kts
07-Jan-21 13:06 33.578509 -117.130283 69 1353ft 0kts
07-Jan-21 13:07 33.578509 -117.130283 69 1353ft 0kts
07-Jan-21 13:08 33.578509 -117.130283 69 1353ft 0kts
07-Jan-21 13:09 33.578509 -117.130283 69 1353ft 0kts
07-Jan-21 13:10 33.578552 -117.130146 69 1353ft 0kts
07-Jan-21 13:11 33.578506 -117.129830 100 1353ft 1kts
07-Jan-21 13:12 33.578422 -117.129275 105 1353ft 0kts
07-Jan-21 13:13 33.578422 -117.129275 105 1353ft 0kts
07-Jan-21 13:14 33.578422 -117.129275 105 1353ft 0kts
07-Jan-21 13:15 33.578422 -117.129275 105 1353ft 0kts
07-Jan-21 13:16 33.578422 -117.129275 105 1353ft 0kts
07-Jan-21 13:17 33.578422 -117.129275 105 1353ft 0kts
07-Jan-21 13:17 33.578455 -117.129085 36 1353ft 2kts
07-Jan-21 13:18 33.579123 -117.128565 99 1353ft 4kts
07-Jan-21 13:20 33.580196 -117.127724 12 1353ft 5kts
07-Jan-21 13:20 33.581494 -117.127388 7 1353ft 5kts
07-Jan-21 13:21 33.582337 -117.127502 60 1353ft 0kts
07-Jan-21 13:23 33.582338 -117.127497 70 1353ft 0kts
07-Jan-21 13:23 33.582292 -117.126999 100 1353ft 0kts
07-Jan-21 13:24 33.582292 -117.126995 101 1353ft 0kts
07-Jan-21 13:25 33.582005 -117.126423 190 1353ft 3kts
07-Jan-21 13:26 33.564032 -117.131014 191 1385ft 105kts
07-Jan-21 13:27 33.536150 -117.136515 189 2053ft 100kts
07-Jan-21 13:28 33.508566 -117.140832 186 2945ft 98kts
07-Jan-21 13:29 33.481127 -117.134783 170 3737ft 104kts
07-Jan-21 13:30 33.452040 -117.135353 180 4397ft 111kts
07-Jan-21 13:31 33.423277 -117.135709 179 5269ft 98kts
07-Jan-21 13:32 33.397592 -117.126886 95 5853ft 105kts
07-Jan-21 13:33 33.419034 -117.110225 12 6383ft 103kts
07-Jan-21 13:34 33.446829 -117.103580 12 7023ft 99kts
07-Jan-21 13:35 33.476423 -117.097132 12 7420ft 115kts
07-Jan-21 13:36 33.509641 -117.089836 11 7728ft 125kts
07-Jan-21 13:37 33.544255 -117.081870 10 8144ft 123kts
07-Jan-21 13:38 33.578725 -117.072214 18 8499ft 126kts
07-Jan-21 13:39 33.597969 -117.097255 285 8789ft 121kts
07-Jan-21 13:40 33.607466 -117.132879 287 9334ft 107kts
07-Jan-21 13:41 33.588331 -117.152660 192 9789ft 112kts
07-Jan-21 13:42 33.556689 -117.160446 196 10162ft 122kts
07-Jan-21 13:43 33.538564 -117.131793 97 10664ft 123kts
07-Jan-21 13:44 33.556421 -117.105993 9 11057ft 121kts
07-Jan-21 13:45 33.588455 -117.094244 15 11395ft 127kts
07-Jan-21 13:46 33.608618 -117.114024 281 11631ft 123kts
07-Jan-21 13:47 33.604778 -117.148954 201 11962ft 127kts
07-Jan-21 13:48 33.569577 -117.155339 193 12257ft 135kts
07-Jan-21 13:49 33.530946 -117.155578 138 12042ft 156kts
07-Jan-21 13:50 33.521477 -117.110202 74 12004ft 132kts
07-Jan-21 13:51 33.550697 -117.091689 14 11211ft 117kts
07-Jan-21 13:52 33.581363 -117.078662 14 10555ft 120kts
07-Jan-21 13:53 33.601412 -117.093556 284 9892ft 125kts
07-Jan-21 13:54 33.607394 -117.131416 262 9272ft 120kts
07-Jan-21 13:55 33.576574 -117.144131 190 8979ft 156kts
07-Jan-21 13:56 33.532635 -117.143799 125 8110ft 170kts
07-Jan-21 13:57 33.540412 -117.097583 15 7433ft 152kts
07-Jan-21 13:58 33.578864 -117.085378 13 6918ft 134kts
07-Jan-21 13:59 33.609036 -117.093948 267 6368ft 131kts
07-Jan-21 14:00 33.597446 -117.134069 255 6139ft 117kts
07-Jan-21 14:01 33.589502 -117.171473 253 6133ft 112kts
07-Jan-21 14:02 33.579570 -117.206453 214 6160ft 112kts
07-Jan-21 14:03 33.563368 -117.183993 92 6209ft 113kts
07-Jan-21 14:04 33.563817 -117.146293 53 6220ft 112kts
07-Jan-21 14:05 33.584404 -117.159759 288 6225ft 107kts
07-Jan-21 14:06 33.606004 -117.182864 2 6220ft 110kts
07-Jan-21 14:07 33.622717 -117.196540 242 6262ft 106kts
07-Jan-21 14:08 33.606293 -117.227114 237 6233ft 110kts
07-Jan-21 14:09 33.589326 -117.258053 237 6221ft 111kts
07-Jan-21 14:10 33.566780 -117.257345 91 6048ft 125kts
07-Jan-21 14:11 33.579138 -117.218209 96 5579ft 132kts
07-Jan-21 14:12 33.572982 -117.176644 98 4843ft 128kts
07-Jan-21 14:13 33.566450 -117.134106 97 3889ft 127kts
07-Jan-21 14:14 33.577595 -117.102703 15 2944ft 108kts
07-Jan-21 14:15 33.595076 -117.116948 267 2441ft 99kts
07-Jan-21 14:16 33.571633 -117.131274 191 2327ft 121kts
07-Jan-21 14:17 33.544024 -117.138396 178 2318ft 95kts
07-Jan-21 14:18 33.545485 -117.118190 12 2315ft 91kts
07-Jan-21 14:19 33.567737 -117.112657 10 2306ft 77kts
07-Jan-21 14:20 33.588526 -117.107605 10 2144ft 76kts
07-Jan-21 14:21 33.593309 -117.122755 205 1694ft 77kts
07-Jan-21 14:22 33.575479 -117.128142 192 1353ft 18kts
07-Jan-21 14:23 33.574634 -117.128920 238 1353ft 0kts
07-Jan-21 14:24 33.574844 -117.129139 11 1353ft 5kts
07-Jan-21 14:25 33.577217 -117.128495 5 1353ft 10kts
07-Jan-21 14:26 33.578224 -117.129550 351 1353ft 1kts
07-Jan-21 14:27 33.578255 -117.129521 42 1353ft 0kts
07-Jan-21 14:28 33.578255 -117.129521 42 1353ft 0kts
07-Jan-21 14:29 33.578255 -117.129521 42 1353ft 0kts
07-Jan-21 14:30 33.578255 -117.129521 42 1353ft 0kts
07-Jan-21 14:31 33.578255 -117.129521 42 1353ft 0kts

Navigation Log

Ident Type
Flight plan parsing failed, navigation log unavailable